createdAt,value
2023-03-11T00:01:58.094Z,70.11
2023-03-11T00:04:24.755Z,70.16
2023-03-11T00:06:51.266Z,70.09
2023-03-11T00:09:17.876Z,69.99
2023-03-11T00:11:44.423Z,69.98
2023-03-11T00:14:10.930Z,70.07
2023-03-11T00:16:41.334Z,70.10
2023-03-11T00:19:07.901Z,70.11
2023-03-11T00:21:35.102Z,70.11
2023-03-11T00:24:03.725Z,70.08
2023-03-11T00:26:30.338Z,70.13
2023-03-11T00:28:56.861Z,70.29
2023-03-11T00:31:23.447Z,70.29
2023-03-11T00:33:49.989Z,70.32
2023-03-11T00:36:20.537Z,70.23
2023-03-11T00:38:47.481Z,70.37
2023-03-11T00:41:14.005Z,70.36
2023-03-11T00:43:40.558Z,70.46
2023-03-11T00:46:07.578Z,70.39
2023-03-11T00:48:34.227Z,70.54
2023-03-11T00:51:00.753Z,70.51
2023-03-11T00:53:27.293Z,70.55
2023-03-11T00:55:53.807Z,70.46
2023-03-11T00:58:20.801Z,70.60
2023-03-11T01:00:50.877Z,70.60
2023-03-11T01:03:17.426Z,70.65
2023-03-11T01:05:45.270Z,70.61
2023-03-11T01:08:11.846Z,70.65
2023-03-11T01:10:38.370Z,70.69
2023-03-11T01:13:04.982Z,70.87
2023-03-11T01:15:32.692Z,70.85
2023-03-11T01:17:59.353Z,70.94
2023-03-11T01:20:25.941Z,70.88
2023-03-11T01:22:52.548Z,70.72
2023-03-11T01:25:19.578Z,70.68
2023-03-11T01:27:46.110Z,70.77
2023-03-11T01:30:13.971Z,70.85
2023-03-11T01:32:40.528Z,71.00
2023-03-11T01:35:07.247Z,70.84
2023-03-11T01:37:33.764Z,70.96
2023-03-11T01:40:00.308Z,71.04
2023-03-11T01:42:27.454Z,71.01
2023-03-11T01:44:55.638Z,71.17
2023-03-11T01:47:34.656Z,71.14
2023-03-11T01:50:01.669Z,71.17
2023-03-11T01:52:28.462Z,71.30
2023-03-11T01:54:55.138Z,71.22
2023-03-11T01:57:22.053Z,71.30
2023-03-11T01:59:51.063Z,71.31
2023-03-11T02:02:18.881Z,71.29
2023-03-11T02:04:45.796Z,71.37
2023-03-11T02:07:12.398Z,71.46
2023-03-11T02:09:39.168Z,71.56
2023-03-11T02:12:05.997Z,71.36
2023-03-11T02:14:32.555Z,71.51
2023-03-11T02:16:59.065Z,71.37
2023-03-11T02:19:25.634Z,71.29
2023-03-11T02:21:52.234Z,71.41
2023-03-11T02:24:35.603Z,71.43
2023-03-11T02:27:03.415Z,71.50
2023-03-11T02:29:30.207Z,71.57
2023-03-11T02:31:56.949Z,71.52
2023-03-11T02:34:24.575Z,71.54
2023-03-11T02:36:51.248Z,71.44
2023-03-11T02:39:29.080Z,71.53
2023-03-11T02:41:55.652Z,71.43
2023-03-11T02:44:22.172Z,71.40
2023-03-11T02:46:49.476Z,71.46
2023-03-11T02:49:16.204Z,71.51
2023-03-11T02:51:42.733Z,71.48
2023-03-11T02:54:09.500Z,71.43
2023-03-11T02:56:36.425Z,71.52
2023-03-11T02:59:02.964Z,71.44
2023-03-11T03:01:29.619Z,71.52
2023-03-11T03:03:56.255Z,71.56
2023-03-11T03:06:22.910Z,71.54
2023-03-11T03:08:51.198Z,71.71
2023-03-11T03:11:17.799Z,71.73
2023-03-11T03:13:46.039Z,71.69
2023-03-11T03:16:12.807Z,71.74
2023-03-11T03:18:39.509Z,71.62
2023-03-11T03:21:07.315Z,71.89
2023-03-11T03:23:35.388Z,71.98
2023-03-11T03:26:02.365Z,71.96
2023-03-11T03:28:28.955Z,72.07
2023-03-11T03:30:55.531Z,72.25
2023-03-11T03:33:22.367Z,72.34
2023-03-11T03:35:49.108Z,72.52
2023-03-11T03:38:19.938Z,72.69
2023-03-11T03:40:48.019Z,72.95
2023-03-11T03:43:16.289Z,72.81
2023-03-11T03:45:44.114Z,72.99
2023-03-11T03:48:10.715Z,73.16
2023-03-11T03:50:40.944Z,73.35
2023-03-11T03:53:07.986Z,73.51
2023-03-11T03:55:34.897Z,73.69
2023-03-11T03:58:01.931Z,73.73
2023-03-11T04:00:31.538Z,73.81
2023-03-11T04:02:59.127Z,73.83
2023-03-11T04:05:32.279Z,73.96
2023-03-11T04:07:58.991Z,74.13
2023-03-11T04:10:25.544Z,74.19
2023-03-11T04:12:52.554Z,74.24
2023-03-11T04:15:19.503Z,74.45
2023-03-11T04:17:47.256Z,74.43
2023-03-11T04:20:14.437Z,74.71
2023-03-11T04:22:41.859Z,74.88
2023-03-11T04:25:08.698Z,75.13
2023-03-11T04:27:35.393Z,75.20
2023-03-11T04:30:02.421Z,75.32
2023-03-11T04:32:30.238Z,75.24
2023-03-11T04:34:57.305Z,75.40
2023-03-11T04:37:27.220Z,75.67
2023-03-11T04:39:53.833Z,75.64
2023-03-11T04:42:20.757Z,75.77
2023-03-11T04:44:47.542Z,75.90
2023-03-11T04:47:15.146Z,75.88
2023-03-11T04:49:41.944Z,75.94
2023-03-11T04:52:08.566Z,76.33
2023-03-11T04:54:35.736Z,76.32
2023-03-11T04:57:02.742Z,76.54
2023-03-11T04:59:29.458Z,76.63
2023-03-11T05:01:56.855Z,76.63
2023-03-11T05:04:23.457Z,76.74
2023-03-11T05:06:53.242Z,76.59
2023-03-11T05:09:20.396Z,76.40
2023-03-11T05:11:46.957Z,76.40
2023-03-11T05:14:14.178Z,76.07
2023-03-11T05:16:41.505Z,76.36
2023-03-11T05:19:28.057Z,76.10
2023-03-11T05:21:55.110Z,76.33
2023-03-11T05:24:22.219Z,76.29
2023-03-11T05:26:48.886Z,76.36
2023-03-11T05:29:15.919Z,76.54
2023-03-11T05:31:42.473Z,76.62
2023-03-11T05:34:09.174Z,76.49
2023-03-11T05:36:35.811Z,76.63
2023-03-11T05:39:02.685Z,76.63
2023-03-11T05:41:30.869Z,76.47
2023-03-11T05:43:57.405Z,76.49
2023-03-11T05:46:24.024Z,76.64
2023-03-11T05:48:50.680Z,76.90
2023-03-11T05:51:17.429Z,76.97
2023-03-11T05:53:48.291Z,76.87
2023-03-11T05:56:18.871Z,76.61
2023-03-11T05:58:46.111Z,76.75
2023-03-11T06:01:13.879Z,76.85
2023-03-11T06:03:40.676Z,76.69
2023-03-11T06:06:07.984Z,76.68
2023-03-11T06:08:35.595Z,76.48
2023-03-11T06:11:03.436Z,76.58
2023-03-11T06:13:30.115Z,76.27
2023-03-11T06:15:56.722Z,76.31
2023-03-11T06:18:23.949Z,76.60
2023-03-11T06:20:50.585Z,76.69
2023-03-11T06:23:17.264Z,76.67
2023-03-11T06:25:43.874Z,76.32
2023-03-11T06:28:11.269Z,76.54
2023-03-11T06:30:37.976Z,76.44
2023-03-11T06:33:08.212Z,76.35
2023-03-11T06:35:34.889Z,76.58
2023-03-11T06:38:01.500Z,76.87
2023-03-11T06:40:28.340Z,76.72
2023-03-11T06:42:54.950Z,76.83
2023-03-11T06:45:21.920Z,76.62
2023-03-11T06:47:48.790Z,77.09
2023-03-11T06:50:15.613Z,77.13
2023-03-11T06:52:42.179Z,77.30
2023-03-11T06:55:09.001Z,77.52
2023-03-11T06:57:35.995Z,77.57
2023-03-11T07:00:07.804Z,77.60
2023-03-11T07:02:34.795Z,77.18
2023-03-11T07:05:01.370Z,76.89
2023-03-11T07:07:27.978Z,76.99
2023-03-11T07:09:55.420Z,77.00
2023-03-11T07:12:23.183Z,76.96
2023-03-11T07:14:50.241Z,76.96
2023-03-11T07:17:16.789Z,76.49
2023-03-11T07:19:46.915Z,76.25
2023-03-11T07:22:13.487Z,76.31
2023-03-11T07:24:39.995Z,76.05
2023-03-11T07:27:06.519Z,76.39
2023-03-11T07:29:33.046Z,76.66
2023-03-11T07:31:59.616Z,76.82
2023-03-11T07:34:26.208Z,77.06
2023-03-11T07:36:52.821Z,77.14
2023-03-11T07:39:19.994Z,77.23
2023-03-11T07:41:46.949Z,77.23
2023-03-11T07:44:13.843Z,77.48
2023-03-11T07:46:40.383Z,77.52
2023-03-11T07:49:07.534Z,77.38
2023-03-11T07:51:34.667Z,77.31
2023-03-11T07:54:01.221Z,77.32
2023-03-11T07:56:29.358Z,77.29
2023-03-11T07:58:56.117Z,77.07
2023-03-11T08:01:23.109Z,77.23
2023-03-11T08:03:51.552Z,77.06
2023-03-11T08:06:21.684Z,77.02
2023-03-11T08:08:48.566Z,77.00
2023-03-11T08:11:15.478Z,77.03
2023-03-11T08:13:42.192Z,77.08
2023-03-11T08:16:09.623Z,76.86
2023-03-11T08:18:36.287Z,76.89
2023-03-11T08:21:06.363Z,77.06
2023-03-11T08:23:32.969Z,76.83
2023-03-11T08:25:59.716Z,76.87
2023-03-11T08:28:26.290Z,77.08
2023-03-11T08:30:53.064Z,77.11
2023-03-11T08:33:19.672Z,76.93
2023-03-11T08:35:46.659Z,77.09
2023-03-11T08:38:13.402Z,77.18
2023-03-11T08:40:39.958Z,77.05
2023-03-11T08:43:07.685Z,77.24
2023-03-11T08:45:34.326Z,77.10
2023-03-11T08:48:01.177Z,77.15
2023-03-11T08:50:28.121Z,77.28
2023-03-11T08:52:56.391Z,77.38
2023-03-11T08:55:27.766Z,77.32
2023-03-11T08:57:54.540Z,77.51
2023-03-11T09:00:21.359Z,77.42
2023-03-11T09:02:52.596Z,77.56
2023-03-11T09:05:19.281Z,77.51
2023-03-11T09:07:45.980Z,77.78
2023-03-11T09:10:14.008Z,77.57
2023-03-11T09:12:40.564Z,77.56
2023-03-11T09:15:07.307Z,77.67
2023-03-11T09:17:33.903Z,77.12
2023-03-11T09:20:00.626Z,77.07
2023-03-11T09:22:27.362Z,77.24
2023-03-11T09:24:53.946Z,77.36
2023-03-11T09:27:20.476Z,76.88
2023-03-11T09:29:46.986Z,76.93
2023-03-11T09:32:13.742Z,76.88
2023-03-11T09:34:40.330Z,76.92
2023-03-11T09:37:06.832Z,76.88
2023-03-11T09:39:33.422Z,76.94
2023-03-11T09:42:03.966Z,77.11
2023-03-11T09:44:33.108Z,77.19
2023-03-11T09:47:03.671Z,76.92
2023-03-11T09:49:38.075Z,76.94
2023-03-11T09:52:15.245Z,77.29
2023-03-11T09:54:42.696Z,77.37
2023-03-11T09:57:09.905Z,77.22
2023-03-11T09:59:36.413Z,77.33
2023-03-11T10:02:04.167Z,77.44
2023-03-11T10:04:42.128Z,77.49
2023-03-11T10:07:12.919Z,77.45
2023-03-11T10:09:50.133Z,77.49
2023-03-11T10:12:23.011Z,77.54
2023-03-11T10:15:05.928Z,77.33
2023-03-11T10:17:46.772Z,77.77
2023-03-11T10:20:16.403Z,77.45
2023-03-11T10:23:01.983Z,77.53
2023-03-11T10:25:29.237Z,77.27
2023-03-11T10:27:57.400Z,77.32
2023-03-11T10:30:42.810Z,77.37
2023-03-11T10:33:29.595Z,77.58
2023-03-11T10:35:57.098Z,77.40
2023-03-11T10:38:28.324Z,77.43
2023-03-11T10:40:55.497Z,77.40
2023-03-11T10:43:26.042Z,77.29
2023-03-11T10:45:52.623Z,77.58
2023-03-11T10:48:19.723Z,77.37
2023-03-11T10:50:49.713Z,77.47
2023-03-11T10:53:17.123Z,77.46
2023-03-11T10:55:45.984Z,77.61
2023-03-11T10:58:13.937Z,77.59
2023-03-11T11:00:40.447Z,77.71
2023-03-11T11:03:12.528Z,77.77
2023-03-11T11:05:39.164Z,77.88
2023-03-11T11:08:12.195Z,78.04
2023-03-11T11:10:38.785Z,78.04
2023-03-11T11:13:08.521Z,77.76
2023-03-11T11:15:36.103Z,77.60
2023-03-11T11:18:04.182Z,77.58
2023-03-11T11:20:31.212Z,77.61
2023-03-11T11:22:58.711Z,77.46
2023-03-11T11:25:26.438Z,77.74
2023-03-11T11:28:00.236Z,77.46
2023-03-11T11:30:26.822Z,77.13
2023-03-11T11:32:55.740Z,77.40
2023-03-11T11:35:23.527Z,76.94
2023-03-11T11:37:51.634Z,77.10
2023-03-11T11:40:19.670Z,77.15
2023-03-11T11:42:50.910Z,77.09
2023-03-11T11:45:28.726Z,77.47
2023-03-11T11:47:56.157Z,77.31
2023-03-11T11:50:25.553Z,77.14
2023-03-11T11:53:01.229Z,77.08
2023-03-11T11:55:28.285Z,77.23
2023-03-11T11:57:54.866Z,77.23
2023-03-11T12:00:26.004Z,77.43
2023-03-11T12:02:56.368Z,77.64
2023-03-11T12:05:26.431Z,77.44
2023-03-11T12:08:14.927Z,77.27
2023-03-11T12:10:44.015Z,77.18
2023-03-11T12:13:20.393Z,77.40
2023-03-11T12:15:50.846Z,77.42
2023-03-11T12:18:37.742Z,77.18
2023-03-11T12:21:10.049Z,77.21
2023-03-11T12:23:39.560Z,77.17
2023-03-11T12:26:06.136Z,77.46
2023-03-11T12:28:37.161Z,77.10
2023-03-11T12:31:05.082Z,76.93
2023-03-11T12:33:51.896Z,76.97
2023-03-11T12:36:38.827Z,76.88
2023-03-11T12:39:06.690Z,77.25
2023-03-11T12:41:36.944Z,77.23
2023-03-11T12:44:04.519Z,77.19
2023-03-11T12:47:06.401Z,76.99
2023-03-11T12:49:36.501Z,76.77
2023-03-11T12:52:03.076Z,77.02
2023-03-11T12:54:34.171Z,77.00
2023-03-11T12:57:05.729Z,76.84
2023-03-11T12:59:38.792Z,76.60
2023-03-11T13:02:12.504Z,76.42
2023-03-11T13:04:54.716Z,76.62
2023-03-11T13:07:21.297Z,76.14
2023-03-11T13:10:01.601Z,75.96
2023-03-11T13:12:38.349Z,75.99
2023-03-11T13:15:28.095Z,75.69
2023-03-11T13:18:07.894Z,75.75
2023-03-11T13:20:43.731Z,75.65
2023-03-11T13:23:10.702Z,75.65
2023-03-11T13:25:40.945Z,75.79
2023-03-11T13:28:26.407Z,75.76
2023-03-11T13:30:56.382Z,75.46
2023-03-11T13:33:25.490Z,75.57
2023-03-11T13:35:55.253Z,75.29
2023-03-11T13:38:40.483Z,75.36
2023-03-11T13:41:14.213Z,75.00
2023-03-11T13:43:44.689Z,75.05
2023-03-11T13:46:19.388Z,74.90
2023-03-11T13:48:46.925Z,75.07
2023-03-11T13:51:20.782Z,74.47
2023-03-11T13:53:48.046Z,74.45
2023-03-11T13:56:25.911Z,74.53
2023-03-11T13:58:52.468Z,74.80
2023-03-11T14:01:19.059Z,74.74
2023-03-11T14:03:46.382Z,74.46
2023-03-11T14:06:19.298Z,74.63
2023-03-11T14:08:53.020Z,74.30
2023-03-11T14:11:20.470Z,74.28
2023-03-11T14:13:48.015Z,74.38
2023-03-11T14:16:28.870Z,74.31
2023-03-11T14:19:01.189Z,74.28
2023-03-11T14:21:28.000Z,74.22
2023-03-11T14:23:55.233Z,74.36
2023-03-11T14:26:26.368Z,74.57
2023-03-11T14:28:53.721Z,74.32
2023-03-11T14:31:25.485Z,74.09
2023-03-11T14:34:04.297Z,74.02
2023-03-11T14:36:32.942Z,73.74
2023-03-11T14:38:59.438Z,73.78
2023-03-11T14:41:25.958Z,73.76
2023-03-11T14:43:52.686Z,74.09
2023-03-11T14:46:23.187Z,73.77
2023-03-11T14:48:49.915Z,73.98
2023-03-11T14:51:36.724Z,74.06
2023-03-11T14:54:07.056Z,74.27
2023-03-11T14:56:34.420Z,74.50
2023-03-11T14:59:08.418Z,74.56
2023-03-11T15:01:40.641Z,74.62
2023-03-11T15:04:09.485Z,74.93
2023-03-11T15:06:36.072Z,75.23
2023-03-11T15:09:05.268Z,75.21
2023-03-11T15:11:32.981Z,75.12
2023-03-11T15:14:29.123Z,75.18
2023-03-11T15:16:56.096Z,75.20
2023-03-11T15:19:25.747Z,75.25
2023-03-11T15:21:54.544Z,75.47
2023-03-11T15:24:22.600Z,75.24
2023-03-11T15:26:56.329Z,75.05
2023-03-11T15:29:23.168Z,74.93
2023-03-11T15:31:50.122Z,74.53
2023-03-11T15:34:16.717Z,74.47
2023-03-11T15:36:49.129Z,74.12
2023-03-11T15:39:17.680Z,73.93
2023-03-11T15:41:45.213Z,73.85
2023-03-11T15:44:20.767Z,73.36
2023-03-11T15:46:47.464Z,72.96
2023-03-11T15:49:13.981Z,73.12
2023-03-11T15:51:40.536Z,72.66
2023-03-11T15:54:07.052Z,72.38
2023-03-11T15:56:33.695Z,72.13
2023-03-11T15:59:00.319Z,72.28
2023-03-11T16:01:28.689Z,72.31
2023-03-11T16:03:55.439Z,72.54
2023-03-11T16:06:22.918Z,72.10
2023-03-11T16:08:49.709Z,71.90
2023-03-11T16:11:16.258Z,71.55
2023-03-11T16:13:42.899Z,71.60
2023-03-11T16:16:16.085Z,71.29
2023-03-11T16:18:42.864Z,71.44
2023-03-11T16:21:18.859Z,71.02
2023-03-11T16:23:51.915Z,70.95
2023-03-11T16:26:18.957Z,70.83
2023-03-11T16:28:45.542Z,70.99
2023-03-11T16:31:12.250Z,70.81
2023-03-11T16:33:38.850Z,70.88
2023-03-11T16:36:05.679Z,70.31
2023-03-11T16:38:32.286Z,70.07
2023-03-11T16:40:59.610Z,69.86
2023-03-11T16:43:26.897Z,70.02
2023-03-11T16:45:56.333Z,70.10
2023-03-11T16:48:23.032Z,70.01
2023-03-11T16:50:49.631Z,70.15
2023-03-11T16:53:17.621Z,69.93
2023-03-11T16:55:44.827Z,69.88
2023-03-11T16:58:11.786Z,69.74
2023-03-11T17:00:38.398Z,69.88
2023-03-11T17:03:04.981Z,69.67
2023-03-11T17:05:31.530Z,69.52
2023-03-11T17:08:01.123Z,69.49
2023-03-11T17:10:28.798Z,69.47
2023-03-11T17:12:55.635Z,69.56
2023-03-11T17:15:22.200Z,69.26
2023-03-11T17:17:50.809Z,68.91
2023-03-11T17:20:19.324Z,68.95
2023-03-11T17:22:47.169Z,69.08
2023-03-11T17:25:13.741Z,68.94
2023-03-11T17:27:40.299Z,68.86
2023-03-11T17:30:07.196Z,68.92
2023-03-11T17:32:33.831Z,68.86
2023-03-11T17:35:00.869Z,68.82
2023-03-11T17:37:27.400Z,69.10
2023-03-11T17:39:53.921Z,68.94
2023-03-11T17:42:20.584Z,69.10
2023-03-11T17:44:51.750Z,69.00
2023-03-11T17:47:20.840Z,68.96
2023-03-11T17:49:47.875Z,68.94
2023-03-11T17:52:14.551Z,68.52
2023-03-11T17:54:41.089Z,68.43
2023-03-11T17:57:07.661Z,68.25
2023-03-11T17:59:34.162Z,68.47
2023-03-11T18:02:00.848Z,68.51
2023-03-11T18:04:27.642Z,68.34
2023-03-11T18:06:54.672Z,68.49
2023-03-11T18:09:21.214Z,68.55
2023-03-11T18:11:47.804Z,68.66
2023-03-11T18:14:14.648Z,68.68
2023-03-11T18:16:41.313Z,68.49
2023-03-11T18:19:07.884Z,68.40
2023-03-11T18:21:34.482Z,68.57
2023-03-11T18:24:01.145Z,68.49
2023-03-11T18:26:28.162Z,68.55
2023-03-11T18:28:55.097Z,68.65
2023-03-11T18:31:22.422Z,68.69
2023-03-11T18:34:14.194Z,68.94
2023-03-11T18:36:41.412Z,68.79
2023-03-11T18:39:11.283Z,68.90
2023-03-11T18:41:37.928Z,68.99
2023-03-11T18:44:04.649Z,68.96
2023-03-11T18:46:31.771Z,68.79
2023-03-11T18:48:58.828Z,68.80
2023-03-11T18:51:26.025Z,68.87
2023-03-11T18:53:52.629Z,68.92
2023-03-11T18:56:19.141Z,68.87
2023-03-11T18:58:45.852Z,68.79
2023-03-11T19:01:14.317Z,68.98
2023-03-11T19:03:41.659Z,69.02
2023-03-11T19:06:09.432Z,68.97
2023-03-11T19:08:36.086Z,69.23
2023-03-11T19:11:08.915Z,69.13
2023-03-11T19:13:46.261Z,69.08
2023-03-11T19:16:14.478Z,69.19
2023-03-11T19:18:41.050Z,69.08
2023-03-11T19:21:07.919Z,69.24
2023-03-11T19:23:34.533Z,69.39
2023-03-11T19:26:03.459Z,69.31
2023-03-11T19:28:30.358Z,69.31
2023-03-11T19:30:57.175Z,69.61
2023-03-11T19:33:24.468Z,69.55
2023-03-11T19:35:51.741Z,69.55
2023-03-11T19:38:18.531Z,69.67
2023-03-11T19:40:45.406Z,69.70
2023-03-11T19:43:13.813Z,69.98
2023-03-11T19:45:40.440Z,69.92
2023-03-11T19:48:07.021Z,69.94
2023-03-11T19:50:33.730Z,69.67
2023-03-11T19:53:00.493Z,69.65
2023-03-11T19:55:27.198Z,69.88
2023-03-11T19:57:53.770Z,69.87
2023-03-11T20:00:20.672Z,69.83
2023-03-11T20:02:47.278Z,69.92
2023-03-11T20:05:14.016Z,69.80
2023-03-11T20:07:40.727Z,69.89
2023-03-11T20:10:07.568Z,69.88
2023-03-11T20:12:34.483Z,69.98
2023-03-11T20:15:01.234Z,69.99
2023-03-11T20:17:27.803Z,70.14
2023-03-11T20:19:54.384Z,69.99
2023-03-11T20:22:21.082Z,70.26
2023-03-11T20:24:47.618Z,70.31
2023-03-11T20:27:15.260Z,70.17
2023-03-11T20:29:42.032Z,70.19
2023-03-11T20:32:08.733Z,70.21
2023-03-11T20:34:35.331Z,70.31
2023-03-11T20:37:02.994Z,70.29
2023-03-11T20:39:30.383Z,70.52
2023-03-11T20:41:57.072Z,70.40
2023-03-11T20:44:24.321Z,70.23
2023-03-11T20:46:51.158Z,70.46
2023-03-11T20:49:18.210Z,70.46
2023-03-11T20:51:48.204Z,70.44
2023-03-11T20:54:15.252Z,70.45
2023-03-11T20:56:42.741Z,70.52
2023-03-11T20:59:10.247Z,70.40
2023-03-11T21:01:37.159Z,70.50
2023-03-11T21:04:04.076Z,70.76
2023-03-11T21:06:35.075Z,70.70
2023-03-11T21:09:02.380Z,70.58
2023-03-11T21:11:29.231Z,70.52
2023-03-11T21:13:55.937Z,70.57
2023-03-11T21:16:23.772Z,70.65
2023-03-11T21:18:50.823Z,70.53
2023-03-11T21:21:17.837Z,70.74
2023-03-11T21:23:45.167Z,70.74
2023-03-11T21:26:12.573Z,70.75
2023-03-11T21:28:40.229Z,70.73
2023-03-11T21:31:08.027Z,70.92
2023-03-11T21:33:35.081Z,70.74
2023-03-11T21:36:01.873Z,70.86
2023-03-11T21:38:29.010Z,70.91
2023-03-11T21:41:24.591Z,70.76
2023-03-11T21:43:51.483Z,70.71
2023-03-11T21:46:19.263Z,70.77
2023-03-11T21:48:48.647Z,70.59
2023-03-11T21:51:15.910Z,70.70
2023-03-11T21:53:42.878Z,70.72
2023-03-11T21:56:10.297Z,70.70
2023-03-11T21:58:37.122Z,70.64
2023-03-11T22:01:03.979Z,70.71
2023-03-11T22:03:31.177Z,70.59
2023-03-11T22:05:58.410Z,70.76
2023-03-11T22:08:25.172Z,70.68
2023-03-11T22:10:51.955Z,70.77
2023-03-11T22:13:18.558Z,70.74
2023-03-11T22:15:45.341Z,70.98
2023-03-11T22:18:12.142Z,70.92
2023-03-11T22:20:41.981Z,70.89
2023-03-11T22:23:35.065Z,70.77
2023-03-11T22:26:01.708Z,70.76
2023-03-11T22:28:28.308Z,70.89
2023-03-11T22:30:54.926Z,70.97
2023-03-11T22:33:21.546Z,70.99
2023-03-11T22:35:51.903Z,71.03
2023-03-11T22:38:18.521Z,71.16
2023-03-11T22:40:45.090Z,71.13
2023-03-11T22:43:11.638Z,71.24
2023-03-11T22:45:38.492Z,71.19
2023-03-11T22:48:07.424Z,71.23
2023-03-11T22:50:34.008Z,71.29
2023-03-11T22:53:00.957Z,71.37
2023-03-11T22:55:27.488Z,71.35
2023-03-11T22:57:54.194Z,71.39
2023-03-11T23:00:21.332Z,71.28
2023-03-11T23:02:48.408Z,71.42
2023-03-11T23:05:15.347Z,71.79
2023-03-11T23:07:42.026Z,71.70
2023-03-11T23:10:09.463Z,71.74
2023-03-11T23:12:36.311Z,71.67
2023-03-11T23:15:03.874Z,71.77
2023-03-11T23:17:30.517Z,71.74
2023-03-11T23:19:57.108Z,71.75
2023-03-11T23:22:24.650Z,71.73
2023-03-11T23:24:51.231Z,71.71
2023-03-11T23:27:17.760Z,71.69
2023-03-11T23:29:44.417Z,71.74
2023-03-11T23:32:11.159Z,71.80
2023-03-11T23:34:37.787Z,71.76
2023-03-11T23:37:05.533Z,71.79
2023-03-11T23:39:32.137Z,71.84
2023-03-11T23:41:58.674Z,71.69
2023-03-11T23:44:25.297Z,72.19
2023-03-11T23:46:51.820Z,71.89
2023-03-11T23:49:18.354Z,71.97
2023-03-11T23:51:44.921Z,71.99
2023-03-11T23:54:11.561Z,71.97
2023-03-11T23:56:38.169Z,72.03
2023-03-11T23:59:05.036Z,71.97
